Time;durP1;ratioP1;P1;durP2;ratioP2;P2;SDS_P1;SDS_P2;PMS_P1;PMS_P2;Temp;Humidity;BMP_temperature;BMP_pressure;BME280_temperature;BME280_humidity;BME280_pressure;Samples;Min_cycle;Max_cycle;Signal;HPM_P1;HPM_P2
2023/08/18 07:09:25;;;;;;;6.80;3.35;;;;;;;22.41;73.71;96622.72;2101075;27;20577;-60
2023/08/18 07:11:40;;;;;;;23.52;14.43;;;;;;;22.75;72.91;96628.34;2082087;27;20574;-60
2023/08/18 07:12:41;;;;;;;9.57;3.55;;;;;;;23.08;72.09;96627.97;2081787;28;20203;-61
2023/08/18 07:13:43;;;;;;;30.40;21.80;;;;;;;23.23;70.90;96637.16;2081476;28;20208;-60
2023/08/18 07:14:45;;;;;;;14.18;4.38;;;;;;;23.20;70.77;96633.97;2081020;28;20196;-62
2023/08/18 07:15:46;;;;;;;5.75;3.20;;;;;;;23.11;70.44;96633.00;2082125;28;20201;-62
2023/08/18 07:16:48;;;;;;;11.10;3.55;;;;;;;23.43;70.26;96635.25;2081867;28;20309;-63
2023/08/18 07:17:49;;;;;;;9.73;2.90;;;;;;;23.94;68.51;96629.47;2082104;28;20195;-63
2023/08/18 07:18:51;;;;;;;6.47;3.30;;;;;;;23.69;68.92;96631.84;2081313;28;20738;-63
2023/08/18 07:19:52;;;;;;;6.80;2.90;;;;;;;23.34;67.65;96635.28;2078804;28;20197;-63
2023/08/18 07:20:53;;;;;;;7.13;2.90;;;;;;;23.33;68.66;96636.31;2076751;28;20186;-62
2023/08/18 07:21:55;;;;;;;10.00;3.13;;;;;;;23.76;69.41;96638.25;2070767;28;20236;-62
2023/08/18 07:22:56;;;;;;;4.07;2.90;;;;;;;24.28;67.92;96636.75;2082128;28;20633;-63
2023/08/18 07:23:58;;;;;;;10.05;2.55;;;;;;;24.25;63.54;96639.72;2081712;28;20201;-63
2023/08/18 07:24:59;;;;;;;4.47;2.25;;;;;;;24.50;65.10;96640.72;2072760;28;20198;-63
2023/08/18 07:26:02;;;;;;;8.68;2.50;;;;;;;24.45;65.76;96635.03;2074008;28;20208;-63
2023/08/18 07:27:04;;;;;;;5.70;3.00;;;;;;;24.59;65.39;96644.31;2073644;28;20204;-63
2023/08/18 07:28:05;;;;;;;4.88;2.65;;;;;;;24.81;65.61;96648.31;2076315;28;20283;-63
2023/08/18 07:29:07;;;;;;;3.63;2.42;;;;;;;24.77;64.09;96644.28;2075971;28;20202;-63
2023/08/18 07:30:09;;;;;;;3.72;2.20;;;;;;;25.49;64.14;96641.28;2077189;28;20197;-63
2023/08/18 07:31:13;;;;;;;8.63;2.92;;;;;;;25.09;63.36;96646.28;2073575;28;20225;-63
2023/08/18 07:32:15;;;;;;;6.15;2.42;;;;;;;25.06;62.98;96648.44;2072058;28;20205;-63
2023/08/18 07:33:16;;;;;;;6.20;2.55;;;;;;;24.90;64.56;96651.84;2071634;28;20198;-63
2023/08/18 07:34:18;;;;;;;4.57;2.50;;;;;;;25.04;64.31;96647.75;2073108;28;20202;-63
2023/08/18 07:35:19;;;;;;;10.23;2.65;;;;;;;24.62;64.78;96652.00;2073585;28;20856;-63
2023/08/18 07:36:21;;;;;;;5.90;3.50;;;;;;;24.61;65.28;96653.81;2073310;28;20245;-63
2023/08/18 07:37:23;;;;;;;6.65;2.80;;;;;;;24.83;65.12;96648.97;2074385;28;20198;-63
2023/08/18 07:38:46;;;;;;;6.95;2.63;;;;;;;24.75;64.50;96652.44;2073474;28;20289;-64
2023/08/18 07:39:47;;;;;;;9.98;3.00;;;;;;;24.84;64.06;96658.66;2075326;28;20204;-64
2023/08/18 07:40:49;;;;;;;4.00;2.10;;;;;;;24.90;63.27;96657.19;2074061;28;20193;-64
2023/08/18 07:41:50;;;;;;;7.20;3.45;;;;;;;25.16;62.29;96659.84;2070756;28;20274;-64
2023/08/18 07:42:52;;;;;;;5.45;2.83;;;;;;;25.47;61.68;96656.66;2071901;28;20830;-63
2023/08/18 07:43:53;;;;;;;5.75;2.60;;;;;;;25.57;61.68;96661.84;2070895;28;20190;-64
2023/08/18 07:44:55;;;;;;;4.88;2.33;;;;;;;25.64;60.91;96654.88;2071383;28;20252;-63
2023/08/18 07:45:57;;;;;;;7.13;2.65;;;;;;;25.01;61.85;96659.59;2073216;28;20198;-63
2023/08/18 07:46:58;;;;;;;4.03;2.50;;;;;;;25.04;62.25;96669.13;2072904;28;20213;-63
2023/08/18 07:48:00;;;;;;;8.32;2.75;;;;;;;24.98;62.81;96664.44;2072689;28;20205;-63
2023/08/18 07:49:03;;;;;;;5.95;2.58;;;;;;;25.03;62.14;96664.78;2074905;28;20197;-63
2023/08/18 07:50:09;;;;;;;7.85;3.35;;;;;;;25.22;62.33;96664.53;2071994;28;20202;-63
2023/08/18 07:51:11;;;;;;;6.05;2.58;;;;;;;25.16;63.09;96659.84;2071757;28;20268;-63
2023/08/18 07:52:13;;;;;;;5.88;2.50;;;;;;;25.21;62.97;96668.22;2072549;28;20225;-63
2023/08/18 07:53:14;;;;;;;4.60;2.63;;;;;;;25.44;62.93;96667.66;2072750;28;20354;-62
2023/08/18 07:54:19;;;;;;;15.25;6.82;;;;;;;25.49;63.29;96664.53;2073908;28;20216;-62
2023/08/18 07:55:22;;;;;;;17.08;5.20;;;;;;;25.65;62.64;96666.38;2074266;28;20197;-62
2023/08/18 07:56:24;;;;;;;17.15;13.38;;;;;;;25.46;62.25;96664.81;2072639;28;20344;-63
2023/08/18 07:57:25;;;;;;;5.70;2.70;;;;;;;25.23;63.64;96666.22;2072887;28;20198;-63
2023/08/18 07:58:27;;;;;;;7.22;3.03;;;;;;;25.08;63.99;96670.50;2073776;28;20193;-62
2023/08/18 07:59:28;;;;;;;7.78;2.55;;;;;;;25.00;64.24;96673.97;2074580;28;20236;-62
2023/08/18 08:00:30;;;;;;;3.83;2.15;;;;;;;25.35;63.00;96664.09;2074576;28;20633;-63
2023/08/18 08:01:32;;;;;;;10.50;3.58;;;;;;;25.35;63.20;96673.97;2071760;28;20229;-63
2023/08/18 08:02:35;;;;;;;6.93;2.25;;;;;;;25.06;63.87;96667.97;2072152;28;20198;-63
2023/08/18 08:03:37;;;;;;;5.50;2.40;;;;;;;24.79;64.59;96671.66;2071520;28;20197;-63
2023/08/18 08:04:38;;;;;;;7.70;2.50;;;;;;;24.91;63.79;96673.06;2071808;28;20263;-63
2023/08/18 08:05:40;;;;;;;7.28;2.80;;;;;;;24.85;64.31;96672.84;2072349;28;20194;-63
2023/08/18 08:06:41;;;;;;;7.57;3.08;;;;;;;24.69;64.89;96678.94;2072097;28;20279;-63
2023/08/18 08:07:43;;;;;;;8.65;3.00;;;;;;;24.64;65.29;96673.19;2073738;28;20669;-63
2023/08/18 08:08:44;;;;;;;6.97;2.83;;;;;;;24.62;65.11;96662.69;2070593;28;20201;-63
2023/08/18 08:09:46;;;;;;;5.43;2.50;;;;;;;24.83;64.47;96670.34;2071096;28;20756;-63
2023/08/18 08:10:48;;;;;;;5.93;2.38;;;;;;;24.92;65.52;96664.06;2074429;28;20789;-63
2023/08/18 08:11:51;;;;;;;12.85;3.42;;;;;;;25.02;64.77;96663.13;2075584;28;20214;-63
2023/08/18 08:12:52;;;;;;;5.38;2.45;;;;;;;25.14;64.79;96664.53;2074897;28;20193;-63
2023/08/18 08:13:54;;;;;;;5.68;2.78;;;;;;;25.33;65.39;96660.75;2075303;28;20194;-63
2023/08/18 08:14:55;;;;;;;8.60;3.25;;;;;;;24.90;65.19;96668.72;2070530;28;20638;-63
2023/08/18 08:15:56;;;;;;;7.28;3.08;;;;;;;24.96;65.11;96671.75;2070128;28;20209;-63
2023/08/18 08:16:58;;;;;;;7.72;2.95;;;;;;;25.00;64.58;96659.75;2074971;28;20202;-63
2023/08/18 08:18:00;;;;;;;5.25;2.78;;;;;;;25.18;63.87;96665.88;2075503;28;20240;-63
2023/08/18 08:19:04;;;;;;;8.93;2.95;;;;;;;25.11;63.93;96662.16;2072998;28;20634;-63
2023/08/18 08:20:16;;;;;;;6.68;3.03;;;;;;;24.62;65.27;96660.84;2071114;28;20198;-62
2023/08/18 08:21:18;;;;;;;8.43;2.78;;;;;;;24.90;64.48;96655.38;2071828;28;20235;-63
2023/08/18 08:22:19;;;;;;;4.82;2.95;;;;;;;25.08;62.60;96671.31;2071792;28;20202;-63
2023/08/18 08:23:21;;;;;;;9.73;2.63;;;;;;;25.35;63.45;96660.59;2064545;28;20293;-63
2023/08/18 08:24:22;;;;;;;7.35;2.50;;;;;;;25.34;62.51;96659.75;2065604;28;20194;-63
2023/08/18 08:25:24;;;;;;;6.43;2.60;;;;;;;25.45;62.47;96658.66;2067023;28;20194;-63
2023/08/18 08:26:25;;;;;;;6.90;3.08;;;;;;;25.60;63.37;96661.56;2064780;28;20229;-63
2023/08/18 08:27:27;;;;;;;9.77;2.80;;;;;;;25.31;63.36;96651.22;2067255;28;20195;-63
2023/08/18 08:28:28;;;;;;;5.15;2.90;;;;;;;25.56;62.77;96658.38;2067608;28;20348;-63
2023/08/18 08:29:30;;;;;;;7.15;2.40;;;;;;;25.75;62.46;96659.09;2068502;28;20206;-63
2023/08/18 08:30:31;;;;;;;6.43;2.60;;;;;;;25.51;62.45;96655.34;2070156;28;20653;-63
2023/08/18 08:31:37;;;;;;;3.38;1.88;;;;;;;25.63;61.61;96655.03;2063434;28;20218;-63
2023/08/18 08:32:39;;;;;;;9.40;3.17;;;;;;;25.95;61.21;96648.91;2068021;28;20206;-63
2023/08/18 08:33:40;;;;;;;19.67;10.98;;;;;;;25.71;61.63;96655.03;2067487;28;20259;-65
2023/08/18 08:34:51;;;;;;;5.07;2.80;;;;;;;25.98;60.41;96653.09;2066519;28;20197;-64
2023/08/18 08:35:53;;;;;;;34.03;17.48;;;;;;;25.96;61.37;96652.44;2068103;28;20244;-62
2023/08/18 08:36:54;;;;;;;4.40;2.60;;;;;;;25.89;60.18;96654.91;2068682;28;20202;-62
2023/08/18 08:37:56;;;;;;;4.82;2.03;;;;;;;26.00;59.99;96653.78;2068680;28;20202;-63
2023/08/18 08:39:00;;;;;;;10.02;2.50;;;;;;;26.10;59.78;96648.31;2064918;28;20293;-63
2023/08/18 08:40:02;;;;;;;9.13;2.58;;;;;;;26.31;60.27;96648.63;2069293;28;20281;-63
2023/08/18 08:41:03;;;;;;;5.32;3.08;;;;;;;26.55;58.85;96653.13;2067130;28;20271;-63
2023/08/18 08:42:05;;;;;;;6.20;2.67;;;;;;;26.34;59.09;96650.97;2068886;28;20205;-63
2023/08/18 08:43:07;;;;;;;5.38;2.55;;;;;;;26.29;58.32;96656.00;2066740;28;20202;-63
2023/08/18 08:44:08;;;;;;;6.05;2.10;;;;;;;25.98;58.42;96651.25;2066397;28;20205;-63
2023/08/18 08:45:10;;;;;;;4.40;2.30;;;;;;;26.19;59.40;96658.00;2068757;28;20297;-63
2023/08/18 08:46:14;;;;;;;4.78;2.15;;;;;;;26.23;57.90;96659.31;2067582;28;20252;-63
2023/08/18 08:47:17;;;;;;;8.63;2.25;;;;;;;26.27;57.77;96655.34;2064682;28;20277;-62
2023/08/18 08:48:23;;;;;;;5.40;2.28;;;;;;;25.98;58.55;96661.97;2067066;28;20873;-63
2023/08/18 08:49:29;;;;;;;4.80;2.10;;;;;;;26.01;58.55;96658.13;2068217;28;20195;-63
2023/08/18 08:50:34;;;;;;;3.92;2.17;;;;;;;26.15;58.28;96659.34;2066645;28;20202;-63
2023/08/18 08:51:37;;;;;;;5.05;2.40;;;;;;;26.34;57.97;96656.31;2067010;28;20260;-63
2023/08/18 08:52:39;;;;;;;12.30;2.85;;;;;;;26.23;58.98;96660.19;2068290;28;20201;-63
2023/08/18 08:53:50;;;;;;;3.25;1.83;;;;;;;26.38;58.20;96662.19;2068196;28;20244;-63
2023/08/18 08:54:59;;;;;;;8.65;2.45;;;;;;;26.33;58.84;96656.50;2064795;28;20245;-63
2023/08/18 08:56:02;;;;;;;4.95;2.60;;;;;;;26.47;57.75;96657.66;2067366;28;20221;-63
2023/08/18 08:57:10;;;;;;;2.63;1.58;;;;;;;26.52;55.74;96650.78;2068966;28;20206;-63
2023/08/18 08:58:12;;;;;;;14.32;2.42;;;;;;;26.56;55.40;96657.50;2067506;28;20191;-63
2023/08/18 08:59:16;;;;;;;4.20;1.80;;;;;;;26.34;56.08;96656.31;2067520;28;20202;-63
2023/08/18 09:00:19;;;;;;;3.90;1.77;;;;;;;26.34;57.14;96652.81;2068405;28;20202;-63
2023/08/18 09:01:22;;;;;;;3.30;1.83;;;;;;;26.47;55.32;96666.50;2065525;28;20226;-63
2023/08/18 09:02:24;;;;;;;4.20;1.80;;;;;;;26.42;56.13;96662.69;2069193;28;20242;-63
2023/08/18 09:03:28;;;;;;;7.35;2.20;;;;;;;26.29;56.18;96658.66;2067262;28;20205;-63
2023/08/18 09:04:29;;;;;;;7.88;2.67;;;;;;;26.61;56.99;96661.50;2067126;28;20206;-63
2023/08/18 09:05:32;;;;;;;3.70;2.10;;;;;;;26.73;54.08;96655.66;2067792;28;20201;-63
2023/08/18 09:06:33;;;;;;;3.80;2.00;;;;;;;26.72;54.42;96658.47;2063987;28;20237;-63
2023/08/18 09:07:35;;;;;;;5.18;2.17;;;;;;;26.88;54.52;96661.16;2065180;28;20205;-63
2023/08/18 09:08:36;;;;;;;5.10;2.00;;;;;;;27.06;54.18;96665.47;2066472;28;20194;-64
2023/08/18 09:09:39;;;;;;;5.05;1.90;;;;;;;26.94;53.73;96661.47;2068569;28;20249;-63
2023/08/18 09:10:41;;;;;;;7.03;1.83;;;;;;;26.76;53.88;96667.03;2067967;28;20205;-63
2023/08/18 09:11:46;;;;;;;4.88;1.58;;;;;;;26.65;52.80;96668.19;2069561;28;20221;-63
2023/08/18 09:12:47;;;;;;;5.95;1.73;;;;;;;26.80;53.37;96660.31;2070068;28;20193;-63
2023/08/18 09:13:49;;;;;;;5.63;2.47;;;;;;;26.92;54.05;96664.31;2067035;28;20194;-63
2023/08/18 09:14:50;;;;;;;4.90;2.08;;;;;;;26.88;54.58;96662.97;2068964;28;20198;-63
2023/08/18 09:15:52;;;;;;;5.40;2.20;;;;;;;26.83;54.84;96663.50;2067910;28;20224;-63
2023/08/18 09:16:53;;;;;;;4.80;2.10;;;;;;;27.04;54.36;96659.44;2066954;28;20198;-63
2023/08/18 09:17:56;;;;;;;4.97;1.92;;;;;;;27.40;54.45;96659.00;2065811;28;20293;-64
2023/08/18 09:18:58;;;;;;;7.00;2.20;;;;;;;27.41;55.41;96657.97;2067780;28;20198;-64
2023/08/18 09:19:59;;;;;;;4.20;2.08;;;;;;;27.31;56.05;96674.25;2069612;28;20252;-63
2023/08/18 09:21:04;;;;;;;4.68;1.90;;;;;;;27.21;54.89;96663.75;2068008;28;20201;-63
2023/08/18 09:22:06;;;;;;;7.82;2.65;;;;;;;27.20;55.39;96666.59;2068341;28;20237;-64
2023/08/18 09:23:07;;;;;;;4.07;2.28;;;;;;;27.20;54.41;96670.09;2068032;28;20796;-63
2023/08/18 09:24:09;;;;;;;6.78;2.40;;;;;;;27.59;55.10;96668.47;2067075;28;20209;-63
2023/08/18 09:25:12;;;;;;;4.45;1.70;;;;;;;27.78;53.68;96667.19;2066936;28;20198;-63
2023/08/18 09:26:13;;;;;;;6.50;2.15;;;;;;;27.68;53.95;96663.88;2064046;28;20713;-63
2023/08/18 09:27:15;;;;;;;7.93;2.50;;;;;;;27.28;54.11;96669.22;2065894;28;20684;-63
2023/08/18 09:28:17;;;;;;;7.00;1.90;;;;;;;27.66;53.96;96666.75;2067935;28;20202;-63
2023/08/18 09:29:20;;;;;;;7.63;2.10;;;;;;;27.12;54.66;96672.81;2064306;28;20194;-63
2023/08/18 09:30:24;;;;;;;5.00;1.48;;;;;;;27.04;54.98;96665.63;2068712;28;20571;-63
2023/08/18 09:31:25;;;;;;;6.30;2.50;;;;;;;26.97;54.71;96669.16;2070026;28;20226;-63
2023/08/18 09:32:27;;;;;;;4.53;2.22;;;;;;;27.03;53.17;96657.75;2069080;28;20221;-63
2023/08/18 09:33:30;;;;;;;3.38;1.95;;;;;;;27.45;53.96;96659.31;2067632;28;20289;-63
2023/08/18 09:34:38;;;;;;;5.18;2.13;;;;;;;27.24;54.58;96667.09;2065888;28;20206;-63
2023/08/18 09:35:40;;;;;;;7.57;2.03;;;;;;;27.33;54.63;96660.69;2068411;28;20198;-63
2023/08/18 09:36:41;;;;;;;5.03;1.77;;;;;;;27.74;53.61;96655.13;2063739;28;20295;-63
2023/08/18 09:37:43;;;;;;;7.80;2.20;;;;;;;28.34;52.52;96652.72;2066717;28;20209;-63
2023/08/18 09:38:45;;;;;;;5.15;2.15;;;;;;;28.07;53.04;96665.69;2067627;28;20562;-63
2023/08/18 09:39:47;;;;;;;7.15;2.35;;;;;;;28.06;53.88;96661.34;2068085;28;20252;-63
2023/08/18 09:40:55;;;;;;;7.45;2.15;;;;;;;27.76;53.82;96660.34;2066084;28;20199;-63
2023/08/18 09:41:58;;;;;;;7.32;2.40;;;;;;;28.06;53.23;96666.72;2066700;28;20222;-63
2023/08/18 09:43:00;;;;;;;4.85;2.40;;;;;;;27.83;54.48;96655.91;2067283;28;20663;-63
2023/08/18 09:44:04;;;;;;;8.45;2.50;;;;;;;27.95;53.91;96665.25;2067548;28;20194;-63
2023/08/18 09:45:06;;;;;;;6.60;2.42;;;;;;;27.97;51.83;96665.06;2066501;28;20711;-63
2023/08/18 09:46:12;;;;;;;6.13;2.30;;;;;;;28.05;51.84;96661.50;2065634;28;20233;-62
2023/08/18 09:47:17;;;;;;;7.05;2.10;;;;;;;28.31;52.20;96661.97;2067495;28;20207;-63
2023/08/18 09:48:21;;;;;;;3.60;2.00;;;;;;;28.39;51.60;96662.94;2071367;28;20644;-64
2023/08/18 09:49:24;;;;;;;6.13;1.73;;;;;;;28.69;51.62;96657.69;2071647;28;20302;-63
2023/08/18 09:50:29;;;;;;;9.40;2.30;;;;;;;28.75;50.90;96659.63;2068986;28;20202;-63
2023/08/18 09:51:31;;;;;;;4.50;1.63;;;;;;;28.94;51.34;96656.41;2067081;28;20218;-64
2023/08/18 09:52:35;;;;;;;6.17;1.90;;;;;;;28.72;51.34;96660.00;2068619;28;20456;-63
2023/08/18 09:53:39;;;;;;;8.10;1.80;;;;;;;28.78;51.25;96652.03;2069451;28;20432;-64
2023/08/18 09:54:59;;;;;;;4.67;2.37;;;;;;;28.72;51.15;96657.31;2064388;28;20201;-63
2023/08/18 09:56:10;;;;;;;9.00;2.50;;;;;;;28.99;51.49;96645.94;2064999;28;20431;-64
2023/08/18 09:57:19;;;;;;;6.90;2.50;;;;;;;29.47;51.22;96642.88;2067197;28;20432;-63
2023/08/18 09:58:48;;;;;;;6.77;3.40;;;;;;;29.46;52.83;96648.44;2068644;28;20438;-63
2023/08/18 09:59:57;;;;;;;10.00;2.20;;;;;;;29.15;52.04;96647.63;2067909;28;20519;-63
2023/08/18 10:01:01;;;;;;;6.77;2.47;;;;;;;28.97;52.50;96650.66;2066268;28;20607;-63
2023/08/18 10:02:04;;;;;;;4.47;2.70;;;;;;;29.17;52.39;96648.25;2066856;28;20432;-63
2023/08/18 10:03:08;;;;;;;7.50;2.37;;;;;;;29.42;52.49;96650.69;2067403;28;20436;-64
2023/08/18 10:04:10;;;;;;;3.03;2.10;;;;;;;28.99;51.15;96647.81;2066965;28;20469;-63
2023/08/18 10:05:14;;;;;;;4.00;2.10;;;;;;;29.01;50.86;96648.44;2066111;28;20428;-63
2023/08/18 10:06:18;;;;;;;6.67;2.80;;;;;;;29.21;50.59;96645.19;2066624;28;20486;-63
2023/08/18 10:07:20;;;;;;;7.03;2.60;;;;;;;28.63;52.50;96651.13;2064377;28;20765;-64
2023/08/18 10:08:24;;;;;;;6.53;2.43;;;;;;;28.57;53.04;96649.19;2066954;28;20434;-64
2023/08/18 10:09:28;;;;;;;11.20;2.40;;;;;;;29.24;51.63;96648.34;2064345;28;20432;-63
2023/08/18 10:10:29;;;;;;;6.73;2.40;;;;;;;29.14;50.97;96642.41;2065074;28;20486;-63
2023/08/18 10:11:34;;;;;;;9.13;2.40;;;;;;;29.69;49.78;96642.91;2065603;28;20500;-63
2023/08/18 10:12:52;;;;;;;6.23;2.27;;;;;;;30.63;50.41;96654.66;2067703;28;20537;-64
2023/08/18 10:13:54;;;;;;;4.37;2.30;;;;;;;30.25;49.21;96641.44;2066570;28;20993;-64
2023/08/18 10:14:56;;;;;;;6.23;2.30;;;;;;;30.27;48.24;96653.69;2067529;28;20519;-63
2023/08/18 10:15:58;;;;;;;3.63;1.90;;;;;;;30.44;48.32;96640.78;2066794;28;20462;-64
2023/08/18 10:17:01;;;;;;;5.20;2.27;;;;;;;31.04;48.54;96650.34;2064192;28;20432;-64
2023/08/18 10:18:07;;;;;;;8.03;2.23;;;;;;;31.31;46.49;96654.03;2065519;28;20457;-64
2023/08/18 10:19:09;;;;;;;7.77;1.90;;;;;;;31.03;47.23;96648.69;2067066;28;20458;-64
2023/08/18 10:20:11;;;;;;;8.20;2.40;;;;;;;31.01;45.96;96653.44;2067492;28;20438;-64
2023/08/18 10:21:15;;;;;;;6.07;2.47;;;;;;;30.25;47.18;96649.53;2068300;28;20539;-64
2023/08/18 10:22:18;;;;;;;7.30;2.00;;;;;;;30.59;47.27;96648.81;2069435;28;20423;-65
2023/08/18 10:23:23;;;;;;;8.20;1.87;;;;;;;30.52;47.38;96647.91;2066916;28;21114;-64
2023/08/18 10:24:24;;;;;;;5.20;1.87;;;;;;;30.26;47.82;96648.50;2063920;28;20436;-64
2023/08/18 10:25:30;;;;;;;4.03;2.07;;;;;;;29.69;48.23;96644.75;2067195;28;20432;-63
2023/08/18 10:26:34;;;;;;;4.87;2.17;;;;;;;29.59;49.44;96653.97;2067622;28;20838;-64
2023/08/18 10:27:38;;;;;;;6.17;1.87;;;;;;;29.76;49.16;96641.16;2066859;28;20424;-63
2023/08/18 10:28:40;;;;;;;5.20;2.23;;;;;;;29.91;48.43;96651.06;2063984;28;20486;-64
2023/08/18 10:29:42;;;;;;;6.67;2.30;;;;;;;30.27;48.67;96647.47;2064420;28;20863;-64
2023/08/18 10:30:49;;;;;;;8.03;2.37;;;;;;;30.70;47.49;96642.06;2065928;28;20444;-63
2023/08/18 10:31:55;;;;;;;10.70;1.97;;;;;;;30.44;47.86;96642.66;2068158;28;20471;-64
2023/08/18 10:33:03;;;;;;;5.77;2.00;;;;;;;30.92;47.19;96645.53;2067346;28;20470;-64
2023/08/18 10:34:04;;;;;;;3.93;2.07;;;;;;;30.70;47.45;96643.91;2067065;28;20424;-64
2023/08/18 10:35:20;;;;;;;3.73;2.20;;;;;;;30.71;45.96;96649.09;2070070;28;20431;-64
2023/08/18 10:36:29;;;;;;;4.50;2.80;;;;;;;30.37;47.46;96641.75;2066752;28;20463;-64
2023/08/18 10:37:32;;;;;;;4.63;2.50;;;;;;;30.24;48.61;96645.97;2066456;28;20781;-64
2023/08/18 10:38:36;;;;;;;7.33;1.83;;;;;;;30.13;48.13;96644.66;2066420;28;20431;-63
2023/08/18 10:39:37;;;;;;;5.33;2.10;;;;;;;29.96;47.02;96643.25;2067432;28;20557;-64
2023/08/18 10:40:39;;;;;;;5.10;1.80;;;;;;;30.16;46.99;96645.28;2067001;28;20953;-62
2023/08/18 10:41:41;;;;;;;6.83;2.30;;;;;;;29.83;46.79;96643.91;2065419;28;20463;-61
2023/08/18 10:42:43;;;;;;;5.13;1.50;;;;;;;29.55;47.12;96644.63;2069123;28;20955;-63
2023/08/18 10:43:51;;;;;;;9.90;2.50;;;;;;;30.13;45.75;96638.41;2067531;28;20982;-63
2023/08/18 10:45:00;;;;;;;3.77;1.93;;;;;;;30.35;46.32;96638.41;2068144;28;20564;-62
2023/08/18 10:46:01;;;;;;;7.03;2.47;;;;;;;30.59;45.92;96642.59;2066929;28;20431;-62
2023/08/18 10:47:30;;;;;;;6.83;2.10;;;;;;;30.63;45.78;96641.19;2066885;28;20776;-63
2023/08/18 10:48:32;;;;;;;3.90;1.40;;;;;;;30.37;45.46;96637.22;2067569;28;20494;-64
2023/08/18 10:49:34;;;;;;;5.90;1.80;;;;;;;30.35;46.84;96638.41;2069213;28;20476;-64
2023/08/18 10:50:38;;;;;;;7.70;2.40;;;;;;;29.38;47.29;96633.25;2067725;28;20428;-64
2023/08/18 10:51:40;;;;;;;12.23;2.13;;;;;;;29.63;47.32;96631.03;2063232;28;20902;-63
2023/08/18 10:52:41;;;;;;;8.23;1.93;;;;;;;29.97;47.80;96632.28;2064425;28;20436;-63
2023/08/18 10:53:43;;;;;;;5.23;2.37;;;;;;;30.47;47.37;96628.78;2068396;28;20530;-61
2023/08/18 10:54:44;;;;;;;3.53;1.57;;;;;;;30.72;45.42;96631.09;2066334;28;20811;-62
2023/08/18 10:55:46;;;;;;;6.00;2.47;;;;;;;30.22;46.58;96625.66;2065521;28;20788;-63
2023/08/18 10:56:47;;;;;;;5.30;2.23;;;;;;;30.17;46.73;96628.09;2066436;28;20423;-63
2023/08/18 10:57:49;;;;;;;6.93;2.30;;;;;;;31.02;46.83;96622.75;2068033;28;20528;-62
2023/08/18 10:58:51;;;;;;;4.33;1.87;;;;;;;31.56;45.07;96619.31;2066229;28;20431;-65
2023/08/18 10:59:52;;;;;;;7.77;1.70;;;;;;;31.08;44.64;96628.25;2066487;28;20424;-62
2023/08/18 11:00:56;;;;;;;5.33;2.03;;;;;;;31.68;44.78;96626.84;2063458;28;20468;-63
2023/08/18 11:01:58;;;;;;;4.30;1.50;;;;;;;31.40;45.58;96614.25;2068224;28;20439;-63
2023/08/18 11:03:03;;;;;;;2.67;1.10;;;;;;;30.64;44.87;96623.13;2068047;28;20543;-65
2023/08/18 11:04:05;;;;;;;6.07;1.50;;;;;;;30.77;43.90;96624.06;2067119;28;20892;-62
2023/08/18 11:05:07;;;;;;;9.27;2.37;;;;;;;31.16;43.30;96612.91;2068074;28;20481;-63
2023/08/18 11:06:09;;;;;;;4.70;1.40;;;;;;;31.35;43.63;96619.44;2065558;28;20463;-64
2023/08/18 11:07:10;;;;;;;5.80;1.63;;;;;;;31.14;44.41;96621.19;2067094;28;20957;-63
2023/08/18 11:08:12;;;;;;;3.27;1.70;;;;;;;31.54;43.38;96615.13;2067141;28;21510;-64
2023/08/18 11:09:14;;;;;;;4.03;1.90;;;;;;;32.04;42.54;96615.72;2064142;28;20542;-65
2023/08/18 11:10:22;;;;;;;5.63;1.93;;;;;;;32.28;43.05;96612.66;2066572;28;20436;-65
2023/08/18 11:11:28;;;;;;;4.67;1.90;;;;;;;32.75;40.73;96609.94;2066103;28;20451;-65
2023/08/18 11:12:29;;;;;;;6.20;1.87;;;;;;;32.62;41.07;96608.91;2068256;28;20423;-64
2023/08/18 11:13:31;;;;;;;2.83;1.50;;;;;;;31.80;41.84;96606.31;2067950;28;20889;-64
2023/08/18 11:14:33;;;;;;;5.40;1.47;;;;;;;32.21;42.23;96607.25;2068053;28;20431;-64
2023/08/18 11:15:34;;;;;;;11.33;1.67;;;;;;;32.36;41.75;96607.88;2067651;28;20613;-65
2023/08/18 11:16:37;;;;;;;10.30;1.97;;;;;;;32.54;42.00;96606.41;2068038;28;20816;-64
2023/08/18 11:17:39;;;;;;;3.80;1.43;;;;;;;32.75;40.44;96609.94;2064142;28;20986;-64
2023/08/18 11:18:41;;;;;;;3.70;1.43;;;;;;;31.85;41.54;96603.03;2066443;28;20428;-64
2023/08/18 11:19:43;;;;;;;7.03;2.10;;;;;;;32.56;41.57;96607.03;2067201;28;20427;-64
2023/08/18 11:20:44;;;;;;;3.53;1.43;;;;;;;32.00;40.82;96594.72;2063795;28;20436;-64
2023/08/18 11:21:46;;;;;;;5.13;1.73;;;;;;;32.47;41.39;96603.72;2064165;28;20502;-63
2023/08/18 11:22:51;;;;;;;4.80;1.67;;;;;;;32.35;41.60;96597.28;2063774;28;20517;-63
2023/08/18 11:23:53;;;;;;;10.03;4.40;;;;;;;32.92;40.65;96596.84;2066648;28;20423;-63
2023/08/18 11:24:54;;;;;;;6.43;1.90;;;;;;;32.91;40.19;96595.97;2068410;28;20423;-63
2023/08/18 11:25:56;;;;;;;5.80;1.97;;;;;;;32.96;41.85;96596.19;2067067;28;20431;-62
2023/08/18 11:26:58;;;;;;;4.10;1.70;;;;;;;32.39;40.69;96603.91;2067278;28;20482;-63
2023/08/18 11:27:59;;;;;;;4.30;1.63;;;;;;;33.79;39.90;96594.63;2064779;28;20490;-62
2023/08/18 11:29:01;;;;;;;4.00;1.30;;;;;;;33.92;39.16;96591.03;2068320;28;20435;-64
2023/08/18 11:30:04;;;;;;;4.03;1.43;;;;;;;33.44;38.82;96588.78;2067845;28;20428;-64
2023/08/18 11:31:08;;;;;;;5.43;1.63;;;;;;;33.62;39.74;96591.56;2063499;28;20452;-63
2023/08/18 11:32:11;;;;;;;6.43;1.40;;;;;;;33.71;39.56;96592.16;2063656;28;20459;-64
2023/08/18 11:33:13;;;;;;;11.70;1.73;;;;;;;33.21;40.75;96581.97;2066347;28;20620;-63
2023/08/18 11:34:15;;;;;;;5.17;1.53;;;;;;;32.97;40.04;96587.03;2068033;28;20720;-63
2023/08/18 11:35:18;;;;;;;5.80;1.80;;;;;;;32.75;41.59;96581.06;2067342;28;20511;-63
2023/08/18 11:36:20;;;;;;;5.00;1.53;;;;;;;32.72;40.47;96593.09;2065487;28;20456;-64
2023/08/18 11:37:23;;;;;;;4.27;2.03;;;;;;;32.58;40.35;96582.50;2068408;28;20432;-64
2023/08/18 11:38:24;;;;;;;4.10;1.53;;;;;;;32.64;41.16;96574.38;2066954;28;20435;-64
2023/08/18 11:39:29;;;;;;;7.90;1.70;;;;;;;33.01;40.95;96582.03;2066518;28;20903;-63
2023/08/18 11:40:35;;;;;;;4.10;1.57;;;;;;;32.78;41.06;96583.34;2066349;28;20428;-63
2023/08/18 11:41:43;;;;;;;3.60;1.30;;;;;;;32.99;42.08;96579.53;2065065;28;21022;-64
2023/08/18 11:42:46;;;;;;;10.53;2.63;;;;;;;34.43;40.43;96582.97;2067938;28;21016;-63
2023/08/18 11:43:50;;;;;;;10.80;1.63;;;;;;;35.04;39.54;96581.31;2066625;28;20511;-64
2023/08/18 11:44:51;;;;;;;5.10;1.70;;;;;;;35.66;38.92;96580.38;2067583;28;20486;-64
2023/08/18 11:45:53;;;;;;;4.63;1.83;;;;;;;35.10;38.05;96587.75;2066942;28;20444;-64
2023/08/18 11:46:56;;;;;;;4.13;1.80;;;;;;;34.89;37.39;96578.97;2066360;28;20431;-64
2023/08/18 11:48:03;;;;;;;4.50;1.80;;;;;;;34.81;38.35;96577.38;2063669;28;20424;-63
2023/08/18 11:49:31;;;;;;;7.77;1.93;;;;;;;34.10;39.21;96584.03;2066204;28;20438;-63
2023/08/18 11:50:35;;;;;;;4.37;1.60;;;;;;;33.12;38.88;96580.56;2067356;28;20504;-63
2023/08/18 11:51:37;;;;;;;6.13;1.57;;;;;;;32.48;40.37;96585.63;2066868;28;20470;-63
2023/08/18 11:52:41;;;;;;;4.93;1.60;;;;;;;32.87;40.39;96590.19;2066915;28;20424;-63
2023/08/18 11:53:42;;;;;;;3.77;1.63;;;;;;;33.07;39.31;96583.06;2065679;28;20463;-64
2023/08/18 11:54:44;;;;;;;3.00;1.73;;;;;;;32.40;40.86;96581.28;2065999;28;20486;-64
2023/08/18 11:55:46;;;;;;;6.90;1.80;;;;;;;33.14;39.87;96578.44;2066416;28;20427;-64
2023/08/18 11:56:50;;;;;;;5.07;1.57;;;;;;;33.09;39.84;96587.22;2066963;28;20495;-63
2023/08/18 11:57:54;;;;;;;10.37;1.60;;;;;;;33.73;38.36;96581.13;2068785;28;20435;-64
2023/08/18 11:58:56;;;;;;;6.30;1.70;;;;;;;33.83;38.16;96579.63;2068712;28;21043;-61
2023/08/18 11:59:57;;;;;;;2.80;1.40;;;;;;;33.49;39.05;96578.94;2066622;28;20438;-63
2023/08/18 12:01:03;;;;;;;5.70;1.43;;;;;;;33.68;39.03;96579.06;2066111;28;20467;-61
2023/08/18 12:02:05;;;;;;;4.67;1.67;;;;;;;33.46;39.04;96578.53;2067084;28;20443;-61
2023/08/18 12:03:20;;;;;;;3.50;1.63;;;;;;;33.45;39.10;96579.63;2067892;28;20431;-61
2023/08/18 12:04:29;;;;;;;7.77;1.50;;;;;;;34.18;37.85;96579.19;2069675;28;20559;-61
2023/08/18 12:05:31;;;;;;;7.73;1.63;;;;;;;34.23;37.81;96578.50;2069024;28;20451;-60
2023/08/18 12:06:33;;;;;;;4.40;1.53;;;;;;;33.90;38.71;96568.75;2067255;28;21257;-61
2023/08/18 12:07:34;;;;;;;6.30;1.40;;;;;;;33.86;39.00;96575.66;2069529;28;20431;-61